Terminal Aerodrome Forecast
Issued by NWS Goodland, KS

Home | Current Version | Previous Version | Text Only | Print | Product List | Glossary On
Versions: 1 2 3 4 5 6 7 8 9 10 11 12 13
000
FTUS43 KGLD 271801 CCA
TAFGLD
TAF COR
KGLD 271801Z 2718/2818 19018G26KT P6SM FEW150
     FM272200 18017G25KT P6SM VCTS SCT080CB BKN200
     FM280100 18012G17KT P6SM -TSRA BKN070CB
     FM280500 19011KT P6SM VCTS BKN250CB
     FM280600 19011KT P6SM BKN250
     FM281100 32012G22KT P6SM SCT250=

USA.gov is the U.S. government's official web portal to all federal, state and local government web resources and services.